Murcia, Spain

10:07 AM CEST en Marzo 28, 2017 (GMT +0200)
Urbanizacion Torreguil | | Change Station

Alt 765 ft 37.90 °N, 1.21 °W | Updated 22 seconds ago

Despejado
Despejado
59.4 ° F
Sensación térmica 59.4 ° F
N
0.0
Viento Variable Viento desde OSO
Gusts 0.0 mph

Hoy
Alta -- | Baja -- ° F
--% Posibilidad de precipitaciones
Ayer
Alta -- | Baja -- ° F
Precip. -- pul
Presión 30.30 pul
Visibilidad -9999.0 Millas
Nubes
Punto de rocío 43 ° F
Humedad 54%
Precipitaciones 0.00 pul
Espesor de la nieve No disponible.
7:56 AM 8:24 PM
Luna nueva, 0% visible
METAR LELC 280800Z 25004KT 180V280 CAVOK 15/09 Q1026 NOSIG
Presión 30.30 pul
Visibilidad -9999.0 Millas
Nubes
Punto de rocío 43 ° F
Humedad 54%
Precipitaciones 0.00 pul
Espesor de la nieve No disponible.
7:56 AM 8:24 PM
Luna nueva, 0% visible
METAR LELC 280800Z 25004KT 180V280 CAVOK 15/09 Q1026 NOSIG

Get Severe Weather Alerts

Thanks for signing up!

Be on the lookout for a verification email in your inbox.

You'll start receiving the daily forecast at 8 AM.

×

10-Day Weather Forecast

×

Almanac

Astronomía

Mar. 28, 2017 Salida Puesta
Hora real
Crepúsculo civil
Crepúsculo náutico
Crepúsculo astronómico
Luna
Horas de luz
Horas de luz
Tomorrow will be .
, % of the Moon is Illuminated

Extremos de hoy

Máximos del país Bajas del país

Community

WunderPhotos

Upload Photos

1,962,540 ¡fotos cargadas!

WunderBlog® & News

Nearby

Calidad del aire

  Calidad del aire Índice AQ Contaminante
Not available.

Grosos de nieve

Estación Profundido Altura

Actividad de terremotos

Ciudad Distance Mag. Tiempo y dato
Magnitud mínima muestra es 2,5.

Actividad de terremotos

Ciudad Distance Mag. Tiempo y dato
Magnitud mínima muestra es 2,5.

Temperaturas de aguas costeras

Lugar Temperatura

Stations

Estaciones meteorológicas cercanas

Ubicación de la estación Temp. Vientos helados Punto de rocío Humedad Viento Precip. Alt Actualizado Tipo